createdAt,value
2023-03-23T15:58:48.014Z,13.01
2023-03-23T16:01:18.552Z,12.96
2023-03-23T16:03:55.745Z,12.91
2023-03-23T16:06:32.105Z,12.89
2023-03-23T16:08:58.664Z,12.89
2023-03-23T16:11:28.869Z,12.91
2023-03-23T16:13:55.690Z,12.84
2023-03-23T16:16:27.426Z,12.73
2023-03-23T16:18:54.166Z,12.86
2023-03-23T16:21:20.685Z,12.83
2023-03-23T16:23:47.226Z,12.79
2023-03-23T16:26:14.917Z,12.83
2023-03-23T16:28:43.529Z,12.81
2023-03-23T16:31:10.473Z,12.77
2023-03-23T16:33:37.083Z,12.88
2023-03-23T16:36:03.885Z,12.79
2023-03-23T16:38:30.422Z,12.82
2023-03-23T16:40:56.960Z,12.84
2023-03-23T16:43:23.444Z,12.76
2023-03-23T16:45:50.454Z,12.77
2023-03-23T16:48:17.114Z,12.71
2023-03-23T16:50:44.419Z,12.65
2023-03-23T16:53:11.118Z,12.64
2023-03-23T16:55:38.548Z,11.40
2023-03-23T16:58:16.137Z,10.55
2023-03-23T17:00:48.991Z,10.09
2023-03-23T17:03:17.023Z,9.85
2023-03-23T17:05:44.879Z,9.80
2023-03-23T17:08:11.841Z,9.68
2023-03-23T17:10:39.810Z,9.71
2023-03-23T17:13:06.855Z,9.65
2023-03-23T17:15:33.597Z,9.65
2023-03-23T17:18:00.503Z,9.74
2023-03-23T17:20:27.626Z,9.69
2023-03-23T17:22:54.158Z,9.69
2023-03-23T17:25:20.708Z,9.72
2023-03-23T17:27:47.185Z,9.67
2023-03-23T17:30:13.761Z,9.62
2023-03-23T17:32:40.488Z,9.49
2023-03-23T17:35:07.358Z,9.42
2023-03-23T17:37:34.132Z,9.59
2023-03-23T17:40:00.718Z,9.66
2023-03-23T17:42:27.402Z,9.52
2023-03-23T17:44:54.023Z,9.51
2023-03-23T17:47:20.888Z,9.62
2023-03-23T17:49:47.891Z,9.57
2023-03-23T17:52:16.878Z,9.36
2023-03-23T17:54:43.512Z,9.37
2023-03-23T17:57:10.582Z,9.52
2023-03-23T17:59:38.207Z,9.58
2023-03-23T18:02:05.213Z,9.62
2023-03-23T18:04:32.034Z,9.43
2023-03-23T18:06:59.213Z,9.27
2023-03-23T18:09:26.177Z,9.12
2023-03-23T18:11:53.255Z,9.03
2023-03-23T18:14:20.840Z,9.01
2023-03-23T18:16:48.229Z,9.10
2023-03-23T18:19:15.048Z,9.08
2023-03-23T18:21:42.955Z,9.10
2023-03-23T18:24:11.058Z,9.27
2023-03-23T18:26:37.831Z,9.23
2023-03-23T18:29:04.382Z,9.30
2023-03-23T18:31:30.917Z,9.37
2023-03-23T18:33:57.642Z,9.42
2023-03-23T18:36:26.143Z,9.38
2023-03-23T18:38:56.566Z,9.51
2023-03-23T18:41:23.484Z,9.63
2023-03-23T18:43:50.136Z,9.57
2023-03-23T18:46:16.641Z,9.57
2023-03-23T18:48:43.862Z,9.64
2023-03-23T18:51:11.353Z,9.56
2023-03-23T18:53:37.907Z,9.69
2023-03-23T18:56:16.546Z,9.48
2023-03-23T18:58:43.828Z,9.58
2023-03-23T19:01:13.517Z,9.28
2023-03-23T19:03:40.857Z,9.37
2023-03-23T19:06:18.771Z,9.58
2023-03-23T19:08:46.004Z,9.52
2023-03-23T19:11:12.972Z,9.45
2023-03-23T19:13:44.433Z,9.60
2023-03-23T19:16:17.397Z,9.36
2023-03-23T19:18:43.999Z,9.41
2023-03-23T19:21:15.920Z,9.51
2023-03-23T19:23:45.089Z,9.46
2023-03-23T19:26:20.291Z,9.46
2023-03-23T19:29:19.209Z,9.61
2023-03-23T19:31:33.394Z,9.70
2023-03-23T19:34:00.577Z,9.65
2023-03-23T19:36:28.708Z,9.71
2023-03-23T19:38:57.326Z,9.70
2023-03-23T19:41:27.056Z,9.69
2023-03-23T19:43:54.858Z,9.72
2023-03-23T19:46:21.446Z,9.76
2023-03-23T19:48:48.822Z,9.90
2023-03-23T19:51:18.772Z,9.83
2023-03-23T19:53:46.372Z,9.90
2023-03-23T19:56:14.668Z,9.90
2023-03-23T19:58:41.491Z,9.91
2023-03-23T20:01:08.693Z,10.03
2023-03-23T20:03:36.183Z,10.07
2023-03-23T20:06:05.711Z,9.98
2023-03-23T20:08:32.701Z,9.97
2023-03-23T20:11:09.160Z,9.92
2023-03-23T20:13:36.065Z,9.93
2023-03-23T20:16:02.772Z,9.92
2023-03-23T20:18:29.852Z,9.85
2023-03-23T20:21:25.813Z,9.89
2023-03-23T20:23:54.376Z,10.02
2023-03-23T20:26:42.405Z,9.97
2023-03-23T20:29:09.646Z,9.97
2023-03-23T20:31:39.313Z,9.86
2023-03-23T20:34:14.269Z,9.75
2023-03-23T20:36:45.030Z,9.82
2023-03-23T20:39:14.901Z,9.93
2023-03-23T20:41:43.306Z,9.60
2023-03-23T20:44:15.858Z,9.44
2023-03-23T20:46:43.865Z,9.39
2023-03-23T20:49:10.431Z,9.50
2023-03-23T20:51:37.836Z,9.48
2023-03-23T20:54:05.784Z,9.48
2023-03-23T20:56:33.523Z,9.48
2023-03-23T20:59:00.417Z,9.36
2023-03-23T21:01:27.077Z,9.19
2023-03-23T21:03:56.883Z,9.16
2023-03-23T21:06:28.094Z,9.30
2023-03-23T21:08:55.865Z,9.25
2023-03-23T21:11:24.055Z,9.21
2023-03-23T21:13:50.904Z,9.09
2023-03-23T21:16:18.897Z,8.98
2023-03-23T21:18:47.372Z,8.95
2023-03-23T21:21:15.019Z,8.89
2023-03-23T21:23:46.690Z,9.00
2023-03-23T21:26:16.977Z,9.08
2023-03-23T21:28:44.544Z,9.13
2023-03-23T21:31:11.176Z,9.06
2023-03-23T21:33:37.746Z,9.06
2023-03-23T21:36:04.549Z,9.06
2023-03-23T21:38:31.096Z,9.04
2023-03-23T21:40:59.025Z,8.85
2023-03-23T21:43:29.572Z,8.84
2023-03-23T21:45:58.850Z,8.96
2023-03-23T21:48:26.862Z,8.94
2023-03-23T21:50:53.638Z,8.84
2023-03-23T21:53:20.688Z,8.84
2023-03-23T21:55:51.807Z,8.81
2023-03-23T21:58:19.670Z,8.60
2023-03-23T22:00:47.430Z,8.73
2023-03-23T22:03:19.214Z,8.76
2023-03-23T22:05:48.756Z,8.81
2023-03-23T22:08:15.335Z,8.63
2023-03-23T22:10:43.224Z,8.64
2023-03-23T22:13:30.286Z,8.76
2023-03-23T22:15:58.322Z,8.64
2023-03-23T22:18:25.379Z,8.66
2023-03-23T22:20:52.185Z,8.64
2023-03-23T22:23:18.823Z,8.73
2023-03-23T22:25:45.343Z,8.76
2023-03-23T22:28:11.895Z,8.70
2023-03-23T22:30:38.452Z,8.64
2023-03-23T22:33:05.111Z,8.59
2023-03-23T22:35:33.711Z,8.60
2023-03-23T22:38:03.149Z,8.68
2023-03-23T22:40:31.476Z,8.53
2023-03-23T22:42:58.110Z,8.62
2023-03-23T22:45:26.114Z,8.49
2023-03-23T22:47:52.849Z,8.56
2023-03-23T22:50:21.529Z,8.73
2023-03-23T22:52:48.232Z,8.65
2023-03-23T22:55:14.762Z,8.71
2023-03-23T22:57:41.624Z,8.78
2023-03-23T23:00:14.854Z,8.77
2023-03-23T23:02:44.884Z,8.67
2023-03-23T23:05:12.371Z,8.75
2023-03-23T23:07:39.251Z,8.69
2023-03-23T23:10:06.801Z,8.73
2023-03-23T23:12:35.168Z,8.68
2023-03-23T23:15:02.957Z,8.62
2023-03-23T23:17:31.777Z,8.69
2023-03-23T23:19:59.607Z,8.78
2023-03-23T23:22:26.584Z,8.83
2023-03-23T23:24:53.117Z,8.78
2023-03-23T23:27:19.637Z,8.73
2023-03-23T23:29:46.217Z,8.65
2023-03-23T23:32:13.062Z,8.75
2023-03-23T23:34:39.666Z,8.70
2023-03-23T23:37:07.010Z,8.79
2023-03-23T23:39:38.099Z,8.67
2023-03-23T23:42:05.811Z,8.59
2023-03-23T23:44:32.666Z,8.46
2023-03-23T23:46:59.184Z,8.66
2023-03-23T23:49:27.667Z,8.73
2023-03-23T23:51:55.041Z,8.71
2023-03-23T23:54:23.513Z,8.68
2023-03-23T23:56:52.829Z,8.48
2023-03-23T23:59:19.554Z,8.47
